createdAt,value
2023-02-11T00:01:08.155Z,80.00
2023-02-11T00:03:35.385Z,80.10
2023-02-11T00:06:05.259Z,80.10
2023-02-11T00:08:34.681Z,80.10
2023-02-11T00:11:01.571Z,80.00
2023-02-11T00:13:28.352Z,80.10
2023-02-11T00:15:55.837Z,80.00
2023-02-11T00:18:22.787Z,80.10
2023-02-11T00:20:49.964Z,80.10
2023-02-11T00:23:16.636Z,80.10
2023-02-11T00:25:45.510Z,80.10
2023-02-11T00:28:12.930Z,80.10
2023-02-11T00:30:40.089Z,80.10
2023-02-11T00:33:07.041Z,80.10
2023-02-11T00:35:33.958Z,80.10
2023-02-11T00:38:00.841Z,80.10
2023-02-11T00:40:27.646Z,80.10
2023-02-11T00:42:54.402Z,80.10
2023-02-11T00:45:21.410Z,80.10
2023-02-11T00:47:51.070Z,80.10
2023-02-11T00:50:17.985Z,80.10
2023-02-11T00:52:44.806Z,80.00
2023-02-11T00:55:11.678Z,80.10
2023-02-11T00:57:38.621Z,80.10
2023-02-11T01:00:09.961Z,80.10
2023-02-11T01:02:36.664Z,80.10
2023-02-11T01:05:03.608Z,80.10
2023-02-11T01:07:30.350Z,80.10
2023-02-11T01:09:57.197Z,80.10
2023-02-11T01:12:24.123Z,80.10
2023-02-11T01:14:51.044Z,80.10
2023-02-11T01:17:17.868Z,80.10
2023-02-11T01:19:44.742Z,80.10
2023-02-11T01:22:11.653Z,80.10
2023-02-11T01:24:38.576Z,80.10
2023-02-11T01:27:05.418Z,80.20
2023-02-11T01:29:32.268Z,80.10
2023-02-11T01:32:00.714Z,80.10
2023-02-11T01:34:27.538Z,80.20
2023-02-11T01:37:00.487Z,80.10
2023-02-11T01:39:27.615Z,80.20
2023-02-11T01:41:55.286Z,80.10
2023-02-11T01:44:40.045Z,80.10
2023-02-11T01:47:06.823Z,80.90
2023-02-11T01:49:40.659Z,80.10
2023-02-11T01:52:10.394Z,80.20
2023-02-11T01:55:03.766Z,80.30
2023-02-11T01:57:33.924Z,80.30
2023-02-11T02:00:07.443Z,80.20
2023-02-11T02:02:39.529Z,80.30
2023-02-11T02:05:19.737Z,80.30
2023-02-11T02:08:13.080Z,80.40
2023-02-11T02:10:45.476Z,80.60
2023-02-11T02:13:12.604Z,80.40
2023-02-11T02:16:09.688Z,80.40
2023-02-11T02:19:04.570Z,80.50
2023-02-11T02:21:55.514Z,80.60
2023-02-11T02:24:43.777Z,80.40
2023-02-11T02:27:35.867Z,80.60
2023-02-11T02:30:39.961Z,80.60
2023-02-11T02:33:33.558Z,80.60
2023-02-11T02:36:18.168Z,80.50
2023-02-11T02:38:55.793Z,80.60
2023-02-11T02:41:34.676Z,80.60
2023-02-11T02:44:02.448Z,80.60
2023-02-11T02:46:33.622Z,80.70
2023-02-11T02:49:01.172Z,80.50
2023-02-11T02:51:49.753Z,80.60
2023-02-11T02:54:42.914Z,80.60
2023-02-11T02:57:31.002Z,80.70
2023-02-11T03:00:26.301Z,80.70
2023-02-11T03:03:14.610Z,80.90
2023-02-11T03:06:02.402Z,80.90
2023-02-11T03:09:18.091Z,80.90
2023-02-11T03:11:45.424Z,80.80
2023-02-11T03:14:16.437Z,80.90
2023-02-11T03:16:45.625Z,80.90
2023-02-11T03:19:20.537Z,81.00
2023-02-11T03:21:51.779Z,81.00
2023-02-11T03:24:45.145Z,81.10
2023-02-11T03:27:37.845Z,81.00
2023-02-11T03:30:16.707Z,81.10
2023-02-11T03:32:53.683Z,81.20
2023-02-11T03:35:28.993Z,81.20
2023-02-11T03:38:02.322Z,81.90
2023-02-11T03:40:35.398Z,81.20
2023-02-11T03:43:12.397Z,81.40
2023-02-11T03:45:40.366Z,81.30
2023-02-11T03:48:17.445Z,81.30
2023-02-11T03:50:46.433Z,81.40
2023-02-11T03:53:15.016Z,81.40
2023-02-11T03:55:47.960Z,81.50
2023-02-11T03:58:15.193Z,81.50
2023-02-11T04:00:43.861Z,81.50
2023-02-11T04:03:11.533Z,81.60
2023-02-11T04:05:39.241Z,81.60
2023-02-11T04:08:06.701Z,81.60
2023-02-11T04:10:33.644Z,81.60
2023-02-11T04:13:00.570Z,81.60
2023-02-11T04:15:27.376Z,81.70
2023-02-11T04:17:54.171Z,81.70
2023-02-11T04:20:21.301Z,81.70
2023-02-11T04:22:48.069Z,81.80
2023-02-11T04:25:14.937Z,81.90
2023-02-11T04:27:41.792Z,82.00
2023-02-11T04:30:09.050Z,82.00
2023-02-11T04:32:35.833Z,82.00
2023-02-11T04:35:03.606Z,82.00
2023-02-11T04:37:30.445Z,82.00
2023-02-11T04:39:57.304Z,82.00
2023-02-11T04:42:24.335Z,82.00
2023-02-11T04:44:51.164Z,82.10
2023-02-11T04:47:18.375Z,82.10
2023-02-11T04:49:45.307Z,82.10
2023-02-11T04:52:12.129Z,83.00
2023-02-11T04:54:39.193Z,82.30
2023-02-11T04:57:06.029Z,82.20
2023-02-11T04:59:32.754Z,82.30
2023-02-11T05:01:59.689Z,82.30
2023-02-11T05:04:26.523Z,82.40
2023-02-11T05:06:53.349Z,82.40
2023-02-11T05:09:20.125Z,82.50
2023-02-11T05:11:46.925Z,82.50
2023-02-11T05:14:13.677Z,82.60
2023-02-11T05:16:43.060Z,82.60
2023-02-11T05:19:10.365Z,82.70
2023-02-11T05:21:37.065Z,83.00
2023-02-11T05:24:04.138Z,82.90
2023-02-11T05:26:30.913Z,82.90
2023-02-11T05:28:57.687Z,83.00
2023-02-11T05:31:24.471Z,83.00
2023-02-11T05:33:51.306Z,83.00
2023-02-11T05:36:18.128Z,83.00
2023-02-11T05:38:45.022Z,83.00
2023-02-11T05:41:12.437Z,83.10
2023-02-11T05:43:39.888Z,83.10
2023-02-11T05:46:06.914Z,83.20
2023-02-11T05:48:33.780Z,83.20
2023-02-11T05:51:00.648Z,83.20
2023-02-11T05:53:27.912Z,83.30
2023-02-11T05:55:54.620Z,83.30
2023-02-11T05:58:21.379Z,83.40
2023-02-11T06:00:51.137Z,83.40
2023-02-11T06:03:17.931Z,83.40
2023-02-11T06:05:45.618Z,83.50
2023-02-11T06:08:12.967Z,83.50
2023-02-11T06:10:42.451Z,83.50
2023-02-11T06:13:12.214Z,83.70
2023-02-11T06:15:46.633Z,83.70
2023-02-11T06:18:13.322Z,83.70
2023-02-11T06:20:41.625Z,83.70
2023-02-11T06:23:08.537Z,83.90
2023-02-11T06:25:35.315Z,83.90
2023-02-11T06:28:02.112Z,83.90
2023-02-11T06:30:28.821Z,84.00
2023-02-11T06:32:55.618Z,84.10
2023-02-11T06:35:22.452Z,84.10
2023-02-11T06:37:49.721Z,84.10
2023-02-11T06:40:16.503Z,84.10
2023-02-11T06:42:43.529Z,84.10
2023-02-11T06:45:11.142Z,84.30
2023-02-11T06:47:38.342Z,85.10
2023-02-11T06:50:05.934Z,84.30
2023-02-11T06:52:32.973Z,84.30
2023-02-11T06:55:00.092Z,84.30
2023-02-11T06:57:29.168Z,84.30
2023-02-11T06:59:55.935Z,84.50
2023-02-11T07:02:22.824Z,84.50
2023-02-11T07:04:49.835Z,84.50
2023-02-11T07:07:16.544Z,84.50
2023-02-11T07:09:43.447Z,84.50
2023-02-11T07:12:10.672Z,84.70
2023-02-11T07:14:37.724Z,84.60
2023-02-11T07:17:04.897Z,84.70
2023-02-11T07:19:31.882Z,84.70
2023-02-11T07:21:58.584Z,84.70
2023-02-11T07:24:25.349Z,84.80
2023-02-11T07:26:53.545Z,84.80
2023-02-11T07:29:20.290Z,84.80
2023-02-11T07:31:47.150Z,84.90
2023-02-11T07:34:14.173Z,84.90
2023-02-11T07:36:43.642Z,85.00
2023-02-11T07:39:10.457Z,85.10
2023-02-11T07:41:38.282Z,85.00
2023-02-11T07:44:05.308Z,85.10
2023-02-11T07:46:32.418Z,85.10
2023-02-11T07:48:59.269Z,85.10
2023-02-11T07:51:30.394Z,85.20
2023-02-11T07:53:59.290Z,85.30
2023-02-11T07:56:29.724Z,85.40
2023-02-11T07:58:59.745Z,85.30
2023-02-11T08:01:28.566Z,85.30
2023-02-11T08:04:02.658Z,85.50
2023-02-11T08:06:31.684Z,85.50
2023-02-11T08:09:03.472Z,85.50
2023-02-11T08:11:30.316Z,85.50
2023-02-11T08:13:57.559Z,85.60
2023-02-11T08:16:25.881Z,85.70
2023-02-11T08:18:53.924Z,85.70
2023-02-11T08:21:21.291Z,85.80
2023-02-11T08:23:49.697Z,85.80
2023-02-11T08:26:30.992Z,85.80
2023-02-11T08:28:58.996Z,85.80
2023-02-11T08:31:35.918Z,85.80
2023-02-11T08:34:03.015Z,86.00
2023-02-11T08:36:32.296Z,85.90
2023-02-11T08:39:17.519Z,86.00
2023-02-11T08:41:48.787Z,86.00
2023-02-11T08:44:16.310Z,86.00
2023-02-11T08:46:46.020Z,86.10
2023-02-11T08:49:12.959Z,86.00
2023-02-11T08:51:40.149Z,86.00
2023-02-11T08:54:09.604Z,86.10
2023-02-11T08:56:39.803Z,86.00
2023-02-11T08:59:07.342Z,86.00
2023-02-11T09:01:34.327Z,86.00
2023-02-11T09:04:01.565Z,86.00
2023-02-11T09:06:29.108Z,86.10
2023-02-11T09:08:57.562Z,86.10
2023-02-11T09:11:30.604Z,86.30
2023-02-11T09:13:57.586Z,86.30
2023-02-11T09:16:27.776Z,86.10
2023-02-11T09:18:57.230Z,86.20
2023-02-11T09:21:27.527Z,86.20
2023-02-11T09:23:54.671Z,86.30
2023-02-11T09:26:27.817Z,86.20
2023-02-11T09:28:55.345Z,86.10
2023-02-11T09:31:26.442Z,86.20
2023-02-11T09:34:00.502Z,86.10
2023-02-11T09:36:30.285Z,86.20
2023-02-11T09:38:59.152Z,86.20
2023-02-11T09:41:35.575Z,86.10
2023-02-11T09:44:06.992Z,86.00
2023-02-11T09:46:42.486Z,86.10
2023-02-11T09:49:19.513Z,86.10
2023-02-11T09:51:57.165Z,86.20
2023-02-11T09:54:37.448Z,86.10
2023-02-11T09:57:06.329Z,86.00
2023-02-11T09:59:33.111Z,86.00
2023-02-11T10:02:07.322Z,86.10
2023-02-11T10:04:34.255Z,86.00
2023-02-11T10:07:17.336Z,86.00
2023-02-11T10:10:02.790Z,86.00
2023-02-11T10:12:55.441Z,85.90
2023-02-11T10:15:33.974Z,86.00
2023-02-11T10:18:07.678Z,86.00
2023-02-11T10:21:06.199Z,86.00
2023-02-11T10:23:40.909Z,86.70
2023-02-11T10:26:16.791Z,86.00
2023-02-11T10:28:46.931Z,86.00
2023-02-11T10:31:18.735Z,86.10
2023-02-11T10:33:57.701Z,86.00
2023-02-11T10:36:31.677Z,85.90
2023-02-11T10:39:23.146Z,86.00
2023-02-11T10:41:55.342Z,85.90
2023-02-11T10:44:24.648Z,86.00
2023-02-11T10:46:52.507Z,86.20
2023-02-11T10:49:37.807Z,86.10
2023-02-11T10:52:23.724Z,86.10
2023-02-11T10:55:15.562Z,86.00
2023-02-11T10:57:52.801Z,86.10
2023-02-11T11:00:37.053Z,86.10
2023-02-11T11:03:14.850Z,86.00
2023-02-11T11:05:51.565Z,86.00
2023-02-11T11:08:19.375Z,84.90
2023-02-11T11:11:11.391Z,84.90
2023-02-11T11:13:59.412Z,85.60
2023-02-11T11:16:32.389Z,84.80
2023-02-11T11:19:08.291Z,84.90
2023-02-11T11:21:55.950Z,84.80
2023-02-11T11:24:40.139Z,84.70
2023-02-11T11:27:07.935Z,84.60
2023-02-11T11:29:37.172Z,84.70
2023-02-11T11:32:11.518Z,84.70
2023-02-11T11:34:42.101Z,84.70
2023-02-11T11:37:13.816Z,84.60
2023-02-11T11:39:41.416Z,84.50
2023-02-11T11:42:26.934Z,84.50
2023-02-11T11:45:03.682Z,84.60
2023-02-11T11:47:41.950Z,84.60
2023-02-11T11:50:38.097Z,84.50
2023-02-11T11:53:23.453Z,84.40
2023-02-11T11:56:10.052Z,84.50
2023-02-11T11:58:46.986Z,84.50
2023-02-11T12:01:33.173Z,84.50
2023-02-11T12:04:24.383Z,84.40
2023-02-11T12:07:24.735Z,84.50
2023-02-11T12:10:27.647Z,84.30
2023-02-11T12:13:22.189Z,84.40
2023-02-11T12:16:14.747Z,84.30
2023-02-11T12:19:10.101Z,84.30
2023-02-11T12:21:57.475Z,84.10
2023-02-11T12:24:33.056Z,84.20
2023-02-11T12:27:18.580Z,84.10
2023-02-11T12:30:04.236Z,84.20
2023-02-11T12:32:50.203Z,84.10
2023-02-11T12:35:29.741Z,84.10
2023-02-11T12:38:52.180Z,84.00
2023-02-11T12:42:14.487Z,84.00
2023-02-11T12:44:50.266Z,83.70
2023-02-11T12:47:35.786Z,83.50
2023-02-11T12:50:24.775Z,83.40
2023-02-11T12:53:39.531Z,83.20
2023-02-11T12:56:33.363Z,83.00
2023-02-11T12:59:03.041Z,83.10
2023-02-11T13:01:34.414Z,83.10
2023-02-11T13:04:25.935Z,83.10
2023-02-11T13:06:57.665Z,82.90
2023-02-11T13:09:34.930Z,83.00
2023-02-11T13:12:24.565Z,83.10
2023-02-11T13:14:54.605Z,83.00
2023-02-11T13:17:36.220Z,83.00
2023-02-11T13:20:49.005Z,83.20
2023-02-11T13:23:28.921Z,83.30
2023-02-11T13:26:13.663Z,83.50
2023-02-11T13:28:55.722Z,83.40
2023-02-11T13:31:30.181Z,83.40
2023-02-11T13:33:58.689Z,83.40
2023-02-11T13:36:28.286Z,83.40
2023-02-11T13:38:58.621Z,83.10
2023-02-11T13:41:39.141Z,83.20
2023-02-11T13:44:08.888Z,83.20
2023-02-11T13:46:50.025Z,82.90
2023-02-11T13:49:40.856Z,82.90
2023-02-11T13:52:32.716Z,83.00
2023-02-11T13:55:14.972Z,82.90
2023-02-11T13:57:45.545Z,82.70
2023-02-11T14:00:37.253Z,83.40
2023-02-11T14:03:31.643Z,82.60
2023-02-11T14:06:29.063Z,82.60
2023-02-11T14:09:09.752Z,82.50
2023-02-11T14:11:50.128Z,82.40
2023-02-11T14:14:26.274Z,82.40
2023-02-11T14:16:59.582Z,82.40
2023-02-11T14:19:33.571Z,82.40
2023-02-11T14:22:13.486Z,82.70
2023-02-11T14:24:51.753Z,82.60
2023-02-11T14:27:33.778Z,82.60
2023-02-11T14:30:34.458Z,82.50
2023-02-11T14:36:43.666Z,82.50
2023-02-11T14:39:25.202Z,82.50
2023-02-11T14:41:55.833Z,82.60
2023-02-11T14:44:26.855Z,82.60
2023-02-11T14:46:54.947Z,82.60
2023-02-11T14:49:33.768Z,82.40
2023-02-11T14:52:22.680Z,82.30
2023-02-11T14:54:51.325Z,82.30
2023-02-11T14:57:20.404Z,83.30
2023-02-11T14:59:59.299Z,82.40
2023-02-11T15:02:33.180Z,82.40
2023-02-11T15:05:20.524Z,82.50
2023-02-11T15:07:59.246Z,82.50
2023-02-11T15:10:34.295Z,82.50
2023-02-11T15:13:03.045Z,82.40
2023-02-11T15:15:31.559Z,82.50
2023-02-11T15:20:44.480Z,82.60
2023-02-11T15:23:20.082Z,82.60
2023-02-11T15:25:53.065Z,82.70
2023-02-11T15:28:28.947Z,82.70
2023-02-11T15:31:17.316Z,82.70
2023-02-11T15:33:44.255Z,83.40
2023-02-11T15:36:15.519Z,82.60
2023-02-11T15:38:42.545Z,82.70
2023-02-11T15:41:39.622Z,82.70
2023-02-11T15:44:06.369Z,82.70
2023-02-11T15:46:38.596Z,82.80
2023-02-11T15:49:08.115Z,82.80
2023-02-11T15:51:39.897Z,82.70
2023-02-11T15:54:18.730Z,82.60
2023-02-11T15:56:49.104Z,82.80
2023-02-11T15:59:20.628Z,82.90
2023-02-11T16:01:52.356Z,82.90
2023-02-11T16:04:22.430Z,82.90
2023-02-11T16:06:54.193Z,82.80
2023-02-11T16:09:36.313Z,82.80
2023-02-11T16:12:21.513Z,82.80
2023-02-11T16:14:48.402Z,82.80
2023-02-11T16:17:31.987Z,82.70
2023-02-11T16:19:58.910Z,82.70
2023-02-11T16:22:38.257Z,82.80
2023-02-11T16:25:19.041Z,82.80
2023-02-11T16:27:49.931Z,82.70
2023-02-11T16:30:31.903Z,82.80
2023-02-11T16:32:58.710Z,82.80
2023-02-11T16:35:25.606Z,82.80
2023-02-11T16:37:52.433Z,82.80
2023-02-11T16:40:19.359Z,82.80
2023-02-11T16:42:47.460Z,82.90
2023-02-11T16:45:15.438Z,82.70
2023-02-11T16:47:43.494Z,82.80
2023-02-11T16:50:19.267Z,82.80
2023-02-11T16:52:47.179Z,82.90
2023-02-11T16:55:15.254Z,82.80
2023-02-11T16:57:42.229Z,82.90
2023-02-11T17:00:10.356Z,82.90
2023-02-11T17:02:38.280Z,82.90
2023-02-11T17:05:09.539Z,82.90
2023-02-11T17:07:39.196Z,82.80
2023-02-11T17:10:14.339Z,82.80
2023-02-11T17:12:41.487Z,82.80
2023-02-11T17:15:08.747Z,82.70
2023-02-11T17:17:35.782Z,82.80
2023-02-11T17:20:02.964Z,82.80
2023-02-11T17:22:30.851Z,82.60
2023-02-11T17:24:58.296Z,82.50
2023-02-11T17:27:25.263Z,82.60
2023-02-11T17:29:52.017Z,82.60
2023-02-11T17:32:18.863Z,82.70
2023-02-11T17:34:45.803Z,82.70
2023-02-11T17:37:12.610Z,82.60
2023-02-11T17:39:40.126Z,82.70
2023-02-11T17:42:07.423Z,82.70
2023-02-11T17:44:36.837Z,82.70
2023-02-11T17:47:06.458Z,82.80
2023-02-11T17:49:33.288Z,82.90
2023-02-11T17:52:00.250Z,82.90
2023-02-11T17:54:27.118Z,82.90
2023-02-11T17:56:57.816Z,82.80
2023-02-11T17:59:28.828Z,82.80
2023-02-11T18:01:55.541Z,82.80
2023-02-11T18:04:22.383Z,82.80
2023-02-11T18:06:55.236Z,82.90
2023-02-11T18:09:22.021Z,82.90
2023-02-11T18:11:50.549Z,82.90
2023-02-11T18:14:17.403Z,82.80
2023-02-11T18:16:45.917Z,82.90
2023-02-11T18:19:13.332Z,83.60
2023-02-11T18:21:43.190Z,82.90
2023-02-11T18:24:10.235Z,82.90
2023-02-11T18:26:36.981Z,82.90
2023-02-11T18:29:06.176Z,83.70
2023-02-11T18:31:35.359Z,82.90
2023-02-11T18:34:05.589Z,82.90
2023-02-11T18:36:32.699Z,84.00
2023-02-11T18:39:00.677Z,83.90
2023-02-11T18:41:30.403Z,83.90
2023-02-11T18:43:58.583Z,83.90
2023-02-11T18:46:27.580Z,83.90
2023-02-11T18:48:57.163Z,83.90
2023-02-11T18:51:24.391Z,83.90
2023-02-11T18:53:51.459Z,83.90
2023-02-11T18:56:22.209Z,83.80
2023-02-11T18:58:49.264Z,84.60
2023-02-11T19:01:23.963Z,83.80
2023-02-11T19:03:50.693Z,83.70
2023-02-11T19:06:20.402Z,83.60
2023-02-11T19:08:47.747Z,83.60
2023-02-11T19:11:17.268Z,83.60
2023-02-11T19:13:44.249Z,83.60
2023-02-11T19:16:14.851Z,83.60
2023-02-11T19:18:41.758Z,83.50
2023-02-11T19:21:12.456Z,83.50
2023-02-11T19:23:41.974Z,83.50
2023-02-11T19:26:08.769Z,83.40
2023-02-11T19:28:37.185Z,83.40
2023-02-11T19:31:09.342Z,83.40
2023-02-11T19:33:36.660Z,83.40
2023-02-11T19:36:05.807Z,83.50
2023-02-11T19:38:33.803Z,83.50
2023-02-11T19:41:00.624Z,83.40
2023-02-11T19:43:30.090Z,83.40
2023-02-11T19:45:57.622Z,83.40
2023-02-11T19:48:25.470Z,83.40
2023-02-11T19:50:52.445Z,83.40
2023-02-11T19:53:19.355Z,83.40
2023-02-11T19:55:46.531Z,83.30
2023-02-11T19:58:13.990Z,83.30
2023-02-11T20:00:43.670Z,83.20
2023-02-11T20:03:10.426Z,83.20
2023-02-11T20:05:42.434Z,83.20
2023-02-11T20:08:09.317Z,83.10
2023-02-11T20:10:36.148Z,83.00
2023-02-11T20:13:03.948Z,83.00
2023-02-11T20:15:31.018Z,83.00
2023-02-11T20:17:57.956Z,83.00
2023-02-11T20:20:24.958Z,83.00
2023-02-11T20:22:52.305Z,83.00
2023-02-11T20:25:19.083Z,83.00
2023-02-11T20:27:45.990Z,82.90
2023-02-11T20:30:13.285Z,82.90
2023-02-11T20:32:42.781Z,82.80
2023-02-11T20:35:12.558Z,82.80
2023-02-11T20:37:41.095Z,82.70
2023-02-11T20:40:09.414Z,82.70
2023-02-11T20:42:36.181Z,82.60
2023-02-11T20:45:03.160Z,82.60
2023-02-11T20:47:29.941Z,82.60
2023-02-11T20:49:56.717Z,82.60
2023-02-11T20:52:26.377Z,82.60
2023-02-11T20:54:56.096Z,82.50
2023-02-11T20:57:22.871Z,82.50
2023-02-11T20:59:49.889Z,82.50
2023-02-11T21:02:16.719Z,82.60
2023-02-11T21:04:43.692Z,82.40
2023-02-11T21:07:10.494Z,82.40
2023-02-11T21:09:38.176Z,82.40
2023-02-11T21:12:05.479Z,82.40
2023-02-11T21:14:34.035Z,82.30
2023-02-11T21:17:00.784Z,82.30
2023-02-11T21:19:27.727Z,82.20
2023-02-11T21:21:55.371Z,82.20
2023-02-11T21:24:22.219Z,82.20
2023-02-11T21:26:49.017Z,82.20
2023-02-11T21:29:16.044Z,82.10
2023-02-11T21:31:43.130Z,82.10
2023-02-11T21:34:10.266Z,82.10
2023-02-11T21:36:37.123Z,82.10
2023-02-11T21:39:04.242Z,82.10
2023-02-11T21:41:31.215Z,82.00
2023-02-11T21:43:58.380Z,82.00
2023-02-11T21:46:25.475Z,82.00
2023-02-11T21:48:52.781Z,82.00
2023-02-11T21:51:22.785Z,82.00
2023-02-11T21:53:54.528Z,82.00
2023-02-11T21:56:24.562Z,82.00
2023-02-11T21:58:53.245Z,82.00
2023-02-11T22:01:29.061Z,82.00
2023-02-11T22:03:56.243Z,81.90
2023-02-11T22:06:28.201Z,81.80
2023-02-11T22:08:55.566Z,81.80
2023-02-11T22:11:23.786Z,81.80
2023-02-11T22:13:55.215Z,81.80
2023-02-11T22:16:22.697Z,81.80
2023-02-11T22:18:49.658Z,81.90
2023-02-11T22:21:21.167Z,81.80
2023-02-11T22:23:50.211Z,81.80
2023-02-11T22:26:20.792Z,81.80
2023-02-11T22:28:47.533Z,81.70
2023-02-11T22:31:17.774Z,81.70
2023-02-11T22:33:45.604Z,82.40
2023-02-11T22:36:16.341Z,81.60
2023-02-11T22:38:43.229Z,81.50
2023-02-11T22:41:11.905Z,81.50
2023-02-11T22:43:38.887Z,81.50
2023-02-11T22:46:07.600Z,81.30
2023-02-11T22:48:35.450Z,81.30
2023-02-11T22:51:10.944Z,81.30
2023-02-11T22:53:37.917Z,81.30
2023-02-11T22:56:15.000Z,81.30
2023-02-11T22:58:42.666Z,81.20
2023-02-11T23:01:09.510Z,81.20
2023-02-11T23:03:36.559Z,82.00
2023-02-11T23:06:03.679Z,81.20
2023-02-11T23:08:31.428Z,81.20
2023-02-11T23:11:10.747Z,81.20
2023-02-11T23:13:39.602Z,81.10
2023-02-11T23:16:16.307Z,81.10
2023-02-11T23:18:47.281Z,80.90
2023-02-11T23:21:23.267Z,80.90
2023-02-11T23:23:55.027Z,81.70
2023-02-11T23:26:21.816Z,80.90
2023-02-11T23:28:48.756Z,80.80
2023-02-11T23:31:25.144Z,80.80
2023-02-11T23:33:52.542Z,80.80
2023-02-11T23:36:20.716Z,80.80
2023-02-11T23:38:48.260Z,80.80
2023-02-11T23:41:15.966Z,80.70
2023-02-11T23:43:50.625Z,80.70
2023-02-11T23:46:17.692Z,80.50
2023-02-11T23:48:44.879Z,80.50
2023-02-11T23:51:11.644Z,80.50
2023-02-11T23:53:39.594Z,80.50
2023-02-11T23:56:09.077Z,80.40
2023-02-11T23:58:36.708Z,80.40
